Aviation Digital Data Service (ADDS)

Output produced by METARs form (0736 UTC 16 January 2018)
found at http://www.aviationweather.gov/adds/metars/
 
KEAU 160726Z AUTO 36007KT 10SM SCT018 M13/M16 A3048 RMK AO2 T11281156
KRNH 160715Z AUTO 34011KT 10SM SCT029 BKN034 BKN100 M15/M18 A3054 RMK AO2 T11551185
KMSP 160709Z 32008KT 10SM BKN030 M18/M20 A3059 RMK AO2 T11781200